ěÝzenÝ letovÚho provozu ╚eskÚ republiky
Letiste: LKTH Aktualizace: 25.05.2024 07:06:40  UTC
 METAR LKTH 25.05. 07:00 RRB
METAR LKTH 250700Z AUTO 18006KT 090V230 9999 OVC018 16/12 Q1019=